Time;durP1;ratioP1;P1;durP2;ratioP2;P2;SDS_P1;SDS_P2;PMS_P1;PMS_P2;Temp;Humidity;BMP_temperature;BMP_pressure;BME280_temperature;BME280_humidity;BME280_pressure;Samples;Min_cycle;Max_cycle;Signal;HPM_P1;HPM_P2
2022/07/05 00:00:10;;;;;;;21.23;10.05;;;23.70;99.90;;;;;;5112084;28;20035;-70
2022/07/05 00:02:39;;;;;;;17.70;9.75;;;23.70;99.90;;;;;;5112394;27;20024;-67
2022/07/05 00:05:05;;;;;;;15.57;9.45;;;23.80;99.90;;;;;;5111847;28;20054;-64
2022/07/05 00:07:31;;;;;;;17.33;10.73;;;23.80;99.90;;;;;;5112282;28;20033;-64
2022/07/05 00:09:58;;;;;;;19.63;10.77;;;23.80;99.90;;;;;;5111887;28;20031;-70
2022/07/05 00:12:32;;;;;;;16.38;10.07;;;23.80;99.90;;;;;;5111691;27;20114;-70
2022/07/05 00:14:59;;;;;;;13.13;9.00;;;23.70;99.90;;;;;;5111682;28;20046;-63
2022/07/05 00:17:25;;;;;;;13.85;9.05;;;23.70;99.90;;;;;;5112131;28;20047;-70
2022/07/05 00:19:51;;;;;;;17.20;9.27;;;23.80;99.90;;;;;;5111824;28;20028;-69
2022/07/05 00:22:17;;;;;;;14.63;8.20;;;23.70;99.90;;;;;;5110223;28;20100;-70
2022/07/05 00:24:43;;;;;;;14.00;8.27;;;23.70;99.90;;;;;;5112201;28;20031;-69
2022/07/05 00:27:09;;;;;;;15.05;9.18;;;23.70;99.90;;;;;;5111879;28;20533;-68
2022/07/05 00:29:35;;;;;;;20.92;9.43;;;23.70;99.90;;;;;;5111393;28;20477;-69
2022/07/05 00:32:01;;;;;;;18.17;9.35;;;23.70;99.90;;;;;;5111587;28;20023;-67
2022/07/05 00:34:26;;;;;;;14.63;8.77;;;23.70;99.90;;;;;;5110123;28;20043;-70
2022/07/05 00:36:52;;;;;;;14.88;8.52;;;23.70;99.90;;;;;;5109752;28;20043;-68
2022/07/05 00:39:18;;;;;;;16.70;8.65;;;23.60;99.90;;;;;;5111563;28;20486;-70
2022/07/05 00:41:44;;;;;;;14.95;9.02;;;23.60;99.90;;;;;;5111129;28;20054;-68
2022/07/05 00:44:11;;;;;;;16.15;9.40;;;23.60;99.90;;;;;;5117712;27;20585;-70
2022/07/05 00:46:38;;;;;;;16.67;8.77;;;23.60;99.90;;;;;;5111502;28;20020;-70
2022/07/05 00:49:04;;;;;;;17.52;9.80;;;23.40;99.90;;;;;;5111176;28;20064;-69
2022/07/05 00:51:33;;;;;;;18.00;9.55;;;23.20;99.90;;;;;;5111843;28;20027;-69
2022/07/05 00:54:00;;;;;;;14.35;9.07;;;23.20;99.90;;;;;;5109849;27;20439;-69
2022/07/05 00:56:26;;;;;;;16.00;9.80;;;23.10;99.90;;;;;;5111062;28;20020;-69
2022/07/05 00:58:53;;;;;;;15.75;9.82;;;23.20;99.90;;;;;;5110821;28;20027;-63
2022/07/05 01:01:19;;;;;;;15.77;9.70;;;23.20;99.90;;;;;;5111336;28;20586;-66
2022/07/05 01:03:45;;;;;;;16.35;9.57;;;23.20;99.90;;;;;;5108808;28;20028;-68
2022/07/05 01:06:12;;;;;;;14.77;9.10;;;23.20;99.90;;;;;;5109809;28;20405;-68
2022/07/05 01:08:41;;;;;;;16.60;9.65;;;23.20;99.90;;;;;;5110967;28;20102;-69
2022/07/05 01:11:08;;;;;;;15.82;9.45;;;23.20;99.90;;;;;;5110872;28;20019;-70
2022/07/05 01:13:36;;;;;;;15.30;10.38;;;23.10;99.90;;;;;;5111217;27;20149;-68
2022/07/05 01:16:02;;;;;;;18.35;9.57;;;23.10;99.90;;;;;;5111876;27;20034;-67
2022/07/05 01:18:29;;;;;;;16.63;10.55;;;23.20;99.90;;;;;;5109174;28;20468;-67
2022/07/05 01:20:58;;;;;;;15.77;8.98;;;23.20;99.90;;;;;;5110817;28;20008;-70
2022/07/05 01:23:27;;;;;;;17.27;9.63;;;23.30;99.90;;;;;;5109177;28;20489;-69
2022/07/05 01:25:54;;;;;;;16.25;9.65;;;23.30;99.90;;;;;;5110530;28;20027;-63
2022/07/05 01:28:20;;;;;;;17.38;9.77;;;23.20;99.90;;;;;;5110749;28;20038;-69
2022/07/05 01:30:47;;;;;;;15.52;9.00;;;23.20;99.90;;;;;;5108939;28;20023;-70
2022/07/05 01:33:13;;;;;;;16.60;10.05;;;23.10;99.90;;;;;;5111037;28;20124;-66
2022/07/05 01:35:39;;;;;;;18.17;10.15;;;23.10;99.90;;;;;;5112235;27;20028;-69
2022/07/05 01:38:05;;;;;;;17.80;10.50;;;23.10;99.90;;;;;;5110177;28;20082;-65
2022/07/05 01:40:31;;;;;;;17.45;10.70;;;23.10;99.90;;;;;;5108889;28;20124;-69
2022/07/05 01:42:58;;;;;;;20.42;9.85;;;22.90;99.90;;;;;;5113706;27;20474;-63
2022/07/05 01:45:39;;;;;;;18.92;11.63;;;22.70;99.90;;;;;;5112078;28;20023;-63
2022/07/05 01:48:07;;;;;;;17.92;11.02;;;22.70;99.90;;;;;;5108806;28;20031;-67
2022/07/05 01:50:36;;;;;;;18.52;11.57;;;22.70;99.90;;;;;;5108337;28;20205;-65
2022/07/05 01:53:03;;;;;;;22.10;10.82;;;22.60;99.90;;;;;;5110274;28;20030;-65
2022/07/05 01:55:29;;;;;;;23.23;11.63;;;22.70;99.90;;;;;;5121274;27;20489;-69
2022/07/05 01:57:55;;;;;;;18.35;10.88;;;22.60;99.90;;;;;;5108647;28;20116;-65
2022/07/05 02:00:21;;;;;;;18.73;10.35;;;22.70;99.90;;;;;;5115599;28;20034;-69
2022/07/05 02:02:50;;;;;;;20.05;10.63;;;22.70;99.90;;;;;;5112289;28;20062;-70
2022/07/05 02:05:16;;;;;;;18.95;12.27;;;22.70;99.90;;;;;;5110622;27;20034;-69
2022/07/05 02:07:49;;;;;;;17.05;11.15;;;22.70;99.90;;;;;;5108772;28;20519;-67
2022/07/05 02:10:16;;;;;;;17.63;11.70;;;22.30;99.90;;;;;;5108570;28;20398;-70
2022/07/05 02:12:42;;;;;;;19.65;12.23;;;22.30;99.90;;;;;;5109897;28;20495;-69
2022/07/05 02:15:09;;;;;;;25.10;11.75;;;22.10;99.90;;;;;;5108766;28;20042;-63
2022/07/05 02:17:37;;;;;;;19.00;12.25;;;22.20;99.90;;;;;;5108305;28;20031;-69
2022/07/05 02:20:04;;;;;;;19.42;11.95;;;22.20;99.90;;;;;;5108632;28;20028;-69
2022/07/05 02:22:33;;;;;;;19.63;10.35;;;22.20;99.90;;;;;;5114314;28;20023;-71
2022/07/05 02:24:59;;;;;;;17.30;11.63;;;22.20;99.90;;;;;;5125070;28;20035;-70
2022/07/05 02:27:26;;;;;;;17.83;12.55;;;22.10;99.90;;;;;;5121454;28;20015;-70
2022/07/05 02:29:52;;;;;;;18.55;12.25;;;22.20;99.90;;;;;;5131459;27;20027;-69
2022/07/05 02:32:25;;;;;;;20.88;12.07;;;22.20;99.90;;;;;;5119617;28;20024;-65
2022/07/05 02:34:51;;;;;;;16.05;11.00;;;22.20;99.90;;;;;;5114050;28;20031;-67
2022/07/05 02:37:17;;;;;;;24.92;12.82;;;22.30;99.90;;;;;;5121741;28;20020;-70
2022/07/05 02:39:43;;;;;;;18.17;11.70;;;22.20;99.90;;;;;;5125729;28;20061;-70
2022/07/05 02:42:11;;;;;;;18.40;11.48;;;22.20;99.90;;;;;;5123501;28;20039;-68
2022/07/05 02:44:37;;;;;;;20.17;11.43;;;22.20;99.90;;;;;;5124986;28;20027;-69
2022/07/05 02:47:03;;;;;;;18.58;12.15;;;22.20;99.90;;;;;;5124258;28;20038;-70
2022/07/05 02:49:31;;;;;;;17.75;11.00;;;22.20;99.90;;;;;;5121498;28;20485;-68
2022/07/05 02:51:59;;;;;;;16.17;10.48;;;22.30;99.90;;;;;;5109873;28;20086;-70
2022/07/05 02:54:25;;;;;;;22.63;11.70;;;22.30;99.90;;;;;;5120619;28;20027;-70
2022/07/05 02:56:51;;;;;;;21.13;13.07;;;22.40;99.90;;;;;;5114967;28;20104;-70
2022/07/05 02:59:19;;;;;;;18.80;12.45;;;22.40;99.90;;;;;;5120151;28;20499;-70
2022/07/05 03:01:45;;;;;;;24.40;15.13;;;22.50;99.90;;;;;;5124707;28;20027;-70
2022/07/05 03:04:14;;;;;;;71.32;43.60;;;22.40;99.90;;;;;;5122743;28;20039;-70
2022/07/05 03:06:46;;;;;;;;;;;22.40;99.90;;;;;;5123929;27;20042;-70
2022/07/05 03:09:12;;;;;;;68.80;50.45;;;22.50;99.90;;;;;;5119160;27;19940;-69
2022/07/05 03:11:37;;;;;;;36.97;25.73;;;22.50;99.90;;;;;;5120971;27;20126;-70
2022/07/05 03:14:05;;;;;;;25.70;16.40;;;22.50;99.90;;;;;;5127442;27;20027;-69
2022/07/05 03:16:32;;;;;;;25.33;14.32;;;22.50;99.90;;;;;;5123172;27;20076;-68
2022/07/05 03:18:58;;;;;;;21.83;12.35;;;22.50;99.90;;;;;;5122712;27;20032;-70
2022/07/05 03:21:24;;;;;;;21.20;11.38;;;22.50;99.90;;;;;;5126154;27;20031;-70
2022/07/05 03:23:51;;;;;;;20.52;11.77;;;22.60;99.90;;;;;;5134875;27;20117;-70
2022/07/05 03:26:17;;;;;;;20.55;11.95;;;22.70;99.90;;;;;;5108398;28;20066;-69
2022/07/05 03:28:44;;;;;;;22.95;12.48;;;22.80;99.90;;;;;;5122665;27;20097;-70
2022/07/05 03:31:11;;;;;;;23.52;11.82;;;22.90;99.90;;;;;;5118442;27;20329;-70
2022/07/05 03:33:40;;;;;;;22.10;12.02;;;23.20;99.90;;;;;;5128722;27;20067;-67
2022/07/05 03:36:09;;;;;;;17.90;11.60;;;23.20;99.90;;;;;;5129263;27;20023;-71
2022/07/05 03:38:36;;;;;;;19.92;11.40;;;23.30;99.90;;;;;;5122323;27;20389;-70
2022/07/05 03:41:02;;;;;;;17.92;11.57;;;23.10;99.90;;;;;;5134014;27;20051;-70
2022/07/05 03:43:29;;;;;;;21.10;12.63;;;23.10;99.90;;;;;;5131084;27;20038;-70
2022/07/05 03:45:55;;;;;;;20.83;12.73;;;23.30;99.90;;;;;;5121034;27;20070;-68
2022/07/05 03:48:22;;;;;;;21.45;12.63;;;23.50;99.90;;;;;;5129076;27;20046;-70
2022/07/05 03:50:50;;;;;;;19.73;12.75;;;23.90;99.90;;;;;;5125223;27;20462;-71
2022/07/05 03:53:17;;;;;;;19.52;12.35;;;24.40;99.90;;;;;;5128774;27;20042;-70
2022/07/05 03:55:43;;;;;;;21.85;11.80;;;24.30;99.90;;;;;;5126035;27;20023;-71
2022/07/05 03:58:09;;;;;;;19.13;13.05;;;25.00;99.90;;;;;;5125648;27;20050;-71
2022/07/05 04:00:35;;;;;;;20.15;10.52;;;25.60;99.90;;;;;;5118573;27;20007;-68
2022/07/05 04:03:05;;;;;;;18.48;11.13;;;26.30;99.90;;;;;;5126934;27;20474;-71
2022/07/05 04:05:31;;;;;;;16.52;11.05;;;26.20;99.90;;;;;;5118618;27;20045;-70
2022/07/05 04:07:58;;;;;;;16.27;10.25;;;27.00;99.90;;;;;;5122195;27;20038;-70
2022/07/05 04:10:30;;;;;;;17.48;10.48;;;27.80;99.90;;;;;;5119358;27;20030;-70
2022/07/05 04:12:56;;;;;;;17.85;10.40;;;28.90;97.90;;;;;;5122793;27;20134;-63
2022/07/05 04:15:24;;;;;;;16.70;11.10;;;29.00;99.90;;;;;;5133287;27;20027;-70
2022/07/05 04:17:55;;;;;;;18.75;10.50;;;29.00;95.50;;;;;;5116939;27;20031;-70
2022/07/05 04:20:24;;;;;;;14.75;10.68;;;;;;;;;;5129448;27;20586;-70
2022/07/05 04:22:51;;;;;;;15.50;10.50;;;29.50;95.40;;;;;;5131035;27;20027;-71
2022/07/05 04:25:19;;;;;;;17.50;11.10;;;30.00;93.60;;;;;;5131293;27;20052;-67
2022/07/05 04:28:03;;;;;;;15.77;10.75;;;;;;;;;;5126501;27;20027;-69
2022/07/05 04:30:32;;;;;;;20.55;11.40;;;30.40;93.20;;;;;;5124442;27;20034;-69
2022/07/05 04:32:59;;;;;;;19.55;11.70;;;30.60;92.10;;;;;;5124359;27;20092;-71
2022/07/05 04:35:25;;;;;;;20.75;12.18;;;30.70;90.90;;;;;;5112542;27;20058;-69
2022/07/05 04:37:53;;;;;;;18.35;10.95;;;30.40;90.70;;;;;;5115473;27;20491;-68
2022/07/05 04:40:20;;;;;;;22.17;11.13;;;;;;;;;;5129488;27;20440;-71
2022/07/05 04:42:46;;;;;;;27.25;16.10;;;31.10;90.30;;;;;;5112385;27;20024;-71
2022/07/05 04:45:14;;;;;;;43.70;27.75;;;31.30;88.30;;;;;;5128376;27;20110;-71
2022/07/05 04:47:40;;;;;;;16.13;11.43;;;31.70;89.50;;;;;;5131349;27;20556;-70
2022/07/05 04:50:08;;;;;;;20.30;11.25;;;;;;;;;;5114280;27;20077;-70
2022/07/05 04:52:34;;;;;;;22.27;11.90;;;31.60;88.20;;;;;;5120844;27;20393;-71
2022/07/05 04:55:00;;;;;;;17.27;11.95;;;31.20;89.90;;;;;;5127180;27;20035;-71
2022/07/05 04:57:26;;;;;;;17.85;11.15;;;31.70;90.20;;;;;;5132769;27;20047;-71
2022/07/05 04:59:51;;;;;;;18.90;11.52;;;31.70;91.10;;;;;;5132803;27;20103;-69
2022/07/05 05:02:17;;;;;;;18.85;11.27;;;31.10;90.30;;;;;;5132664;27;20019;-69
2022/07/05 05:04:43;;;;;;;18.70;11.82;;;30.30;91.50;;;;;;5129750;27;20552;-65
2022/07/05 05:07:09;;;;;;;20.23;12.30;;;30.00;91.70;;;;;;5118702;27;20646;-70
2022/07/05 05:09:37;;;;;;;19.33;11.90;;;30.00;93.00;;;;;;5132339;27;20107;-70
2022/07/05 05:12:03;;;;;;;23.33;12.85;;;;;;;;;;5127716;27;20110;-68
2022/07/05 05:14:29;;;;;;;17.98;12.77;;;29.00;93.80;;;;;;5114904;27;20106;-70
2022/07/05 05:16:55;;;;;;;21.25;13.15;;;28.60;95.90;;;;;;5132025;27;20140;-71
2022/07/05 05:19:21;;;;;;;22.27;12.10;;;28.30;97.90;;;;;;5132130;27;20073;-71
2022/07/05 05:21:46;;;;;;;22.05;11.35;;;28.40;99.70;;;;;;5132762;27;20025;-69
2022/07/05 05:24:12;;;;;;;19.92;11.68;;;28.50;99.90;;;;;;5111544;27;20039;-71
2022/07/05 05:26:38;;;;;;;24.17;12.85;;;28.60;99.90;;;;;;5114180;27;20059;-72
2022/07/05 05:29:04;;;;;;;25.38;13.10;;;28.70;99.40;;;;;;5117844;27;20040;-67
2022/07/05 05:31:29;;;;;;;29.42;12.82;;;28.80;98.40;;;;;;5131859;27;20030;-71
2022/07/05 05:33:55;;;;;;;19.48;12.18;;;28.80;98.90;;;;;;5132154;27;20039;-70
2022/07/05 05:36:21;;;;;;;22.23;11.70;;;28.80;99.90;;;;;;5132027;27;20023;-72
2022/07/05 05:38:47;;;;;;;20.70;11.63;;;28.70;99.80;;;;;;5131404;27;20373;-71
2022/07/05 05:41:13;;;;;;;21.90;12.23;;;28.90;96.30;;;;;;5131399;27;20519;-71
2022/07/05 05:43:38;;;;;;;18.30;10.95;;;29.00;96.70;;;;;;5126921;27;20023;-72
2022/07/05 05:46:04;;;;;;;15.18;10.02;;;28.20;98.00;;;;;;5124120;27;20019;-71
2022/07/05 05:48:30;;;;;;;16.75;10.88;;;28.10;99.20;;;;;;5131981;27;20023;-70
2022/07/05 05:50:56;;;;;;;18.75;10.73;;;27.80;99.90;;;;;;5132089;27;20027;-72
2022/07/05 05:53:22;;;;;;;21.75;10.75;;;28.10;99.90;;;;;;5131786;27;20092;-70
2022/07/05 05:55:48;;;;;;;16.27;10.48;;;28.20;99.40;;;;;;5131925;28;20020;-70
2022/07/05 05:58:26;;;;;;;22.98;11.57;;;28.40;99.90;;;;;;5132052;27;20037;-71
2022/07/05 06:00:52;;;;;;;19.00;12.07;;;28.30;99.70;;;;;;5130520;27;20515;-72
2022/07/05 06:03:22;;;;;;;18.55;12.48;;;28.30;99.90;;;;;;5111398;28;20028;-72
2022/07/05 06:05:48;;;;;;;16.60;10.90;;;28.70;99.90;;;;;;5125995;28;20023;-69
2022/07/05 06:08:14;;;;;;;20.40;11.90;;;28.80;99.90;;;;;;5131648;27;20525;-71
2022/07/05 06:10:40;;;;;;;17.25;11.05;;;28.90;98.90;;;;;;5130895;27;20084;-72
2022/07/05 06:13:08;;;;;;;15.95;10.65;;;29.00;99.00;;;;;;5130125;28;20496;-71
2022/07/05 06:15:34;;;;;;;20.98;11.73;;;29.50;98.50;;;;;;5131805;27;20058;-72
2022/07/05 06:18:01;;;;;;;20.55;11.55;;;29.40;97.10;;;;;;5125551;28;20106;-71
2022/07/05 06:20:29;;;;;;;21.08;12.02;;;29.50;97.00;;;;;;5128624;27;20019;-71
2022/07/05 06:22:56;;;;;;;21.90;12.38;;;29.70;96.60;;;;;;5128688;27;20023;-70
2022/07/05 06:25:22;;;;;;;27.17;11.43;;;29.90;96.90;;;;;;5112245;28;20065;-71
2022/07/05 06:27:51;;;;;;;17.58;9.95;;;29.90;96.60;;;;;;5130926;28;20015;-71
2022/07/05 06:30:19;;;;;;;20.65;10.98;;;30.30;95.90;;;;;;5132685;27;20061;-71
2022/07/05 06:32:46;;;;;;;18.17;10.40;;;30.20;94.70;;;;;;5132342;27;20037;-72
2022/07/05 06:35:13;;;;;;;20.13;10.85;;;30.30;96.50;;;;;;5130711;28;20046;-70
2022/07/05 06:38:00;;;;;;;17.33;10.90;;;30.50;96.00;;;;;;5131953;27;20015;-71
2022/07/05 06:40:28;;;;;;;19.40;11.48;;;30.20;97.50;;;;;;5132184;27;20053;-70
2022/07/05 06:42:57;;;;;;;21.90;11.75;;;30.20;96.80;;;;;;5135683;27;20023;-71
2022/07/05 06:45:29;;;;;;;17.33;9.32;;;30.20;95.90;;;;;;5119131;27;20462;-71
2022/07/05 06:48:03;;;;;;;18.70;8.82;;;30.40;98.20;;;;;;5130010;27;20031;-71
2022/07/05 06:50:38;;;;;;;14.15;7.50;;;30.10;96.40;;;;;;5126003;27;20042;-70
2022/07/05 06:53:04;;;;;;;15.77;7.75;;;30.10;95.80;;;;;;5136204;27;20118;-71
2022/07/05 06:55:31;;;;;;;12.25;7.22;;;30.10;97.40;;;;;;5136416;27;20466;-70
2022/07/05 06:58:02;;;;;;;15.80;7.57;;;30.10;98.90;;;;;;5129237;27;20046;-71
2022/07/05 07:00:28;;;;;;;17.30;6.55;;;30.30;96.90;;;;;;5128294;27;20401;-70
2022/07/05 07:02:55;;;;;;;14.23;6.70;;;30.10;96.00;;;;;;5136143;27;20076;-72
2022/07/05 07:05:21;;;;;;;13.88;7.10;;;30.10;98.60;;;;;;5135743;27;20031;-72
2022/07/05 07:10:31;;;;;;;13.60;7.00;;;30.40;96.30;;;;;;5132696;27;20023;-71
2022/07/05 07:12:58;;;;;;;13.38;7.40;;;30.50;92.60;;;;;;5135964;27;20544;-70
2022/07/05 07:15:24;;;;;;;14.07;7.93;;;30.60;91.30;;;;;;5133503;27;20038;-72
2022/07/05 07:17:50;;;;;;;12.95;7.75;;;30.30;92.60;;;;;;5135755;27;20041;-71
2022/07/05 07:20:16;;;;;;;14.48;6.97;;;30.10;93.60;;;;;;5135481;27;20023;-72
2022/07/05 07:22:42;;;;;;;18.58;8.13;;;30.40;94.30;;;;;;5135498;27;20080;-73
2022/07/05 07:25:11;;;;;;;12.15;7.22;;;30.30;93.60;;;;;;5135325;27;20020;-72
2022/07/05 07:27:48;;;;;;;12.32;5.45;;;30.10;94.40;;;;;;5135380;27;20015;-73
2022/07/05 07:30:18;;;;;;;12.00;5.32;;;30.00;93.40;;;;;;5135744;27;20023;-72
2022/07/05 07:32:45;;;;;;;12.45;5.35;;;30.20;93.80;;;;;;5134626;27;20043;-73
2022/07/05 07:35:11;;;;;;;9.65;5.93;;;30.60;93.50;;;;;;5135075;27;20016;-72
2022/07/05 07:37:37;;;;;;;10.20;5.22;;;30.30;92.40;;;;;;5135612;27;20027;-72
2022/07/05 07:40:08;;;;;;;12.30;5.25;;;30.20;93.50;;;;;;5135450;27;20370;-72
2022/07/05 07:42:34;;;;;;;8.35;5.07;;;30.60;93.60;;;;;;5135108;27;20046;-71
2022/07/05 07:45:03;;;;;;;11.27;5.75;;;30.40;93.70;;;;;;5120515;27;20040;-71
2022/07/05 07:47:33;;;;;;;10.13;5.40;;;30.50;92.40;;;;;;5135328;27;20023;-71
2022/07/05 07:50:00;;;;;;;10.18;4.85;;;30.60;93.10;;;;;;5134274;27;20418;-72
2022/07/05 07:52:26;;;;;;;10.82;4.85;;;30.70;92.70;;;;;;5134610;27;20038;-72
2022/07/05 07:54:52;;;;;;;7.95;5.15;;;30.80;91.20;;;;;;5119146;27;20118;-72
2022/07/05 07:57:18;;;;;;;9.13;4.65;;;31.10;91.40;;;;;;5134979;27;20099;-72
2022/07/05 07:59:44;;;;;;;7.30;4.75;;;31.40;92.10;;;;;;5135051;27;20028;-72
2022/07/05 08:02:10;;;;;;;7.38;4.25;;;31.60;92.10;;;;;;5135188;27;20453;-72
2022/07/05 08:04:36;;;;;;;8.65;5.30;;;31.90;91.90;;;;;;5135098;27;20027;-72
2022/07/05 08:07:03;;;;;;;7.93;4.97;;;31.90;92.60;;;;;;5134819;27;20028;-72
2022/07/05 08:09:30;;;;;;;11.73;4.85;;;31.80;92.80;;;;;;5134798;27;20023;-72
2022/07/05 08:11:56;;;;;;;11.45;4.53;;;32.30;91.00;;;;;;5134572;27;20430;-73
2022/07/05 08:14:23;;;;;;;6.00;4.32;;;32.10;92.70;;;;;;5134906;27;20043;-73
2022/07/05 08:16:49;;;;;;;9.73;4.45;;;31.90;93.00;;;;;;5134888;27;20029;-72
2022/07/05 08:22:01;;;;;;;11.27;5.32;;;31.80;91.90;;;;;;5133623;27;20123;-73
2022/07/05 08:24:27;;;;;;;8.13;4.47;;;32.10;94.10;;;;;;5133150;27;20058;-72
2022/07/05 08:26:53;;;;;;;12.10;4.20;;;32.40;93.10;;;;;;5134233;27;20059;-72
2022/07/05 08:29:19;;;;;;;6.82;4.32;;;32.50;96.00;;;;;;5134300;27;20552;-72
2022/07/05 08:31:49;;;;;;;8.95;4.40;;;32.80;93.90;;;;;;5134436;27;20102;-72
2022/07/05 08:34:18;;;;;;;9.93;4.75;;;32.20;94.10;;;;;;5133671;27;20039;-72
2022/07/05 08:36:44;;;;;;;6.47;4.25;;;32.50;95.90;;;;;;5134061;27;20038;-72
2022/07/05 08:39:10;;;;;;;10.38;5.40;;;32.70;93.70;;;;;;5134457;27;20375;-71
2022/07/05 08:41:39;;;;;;;8.18;4.93;;;32.80;94.50;;;;;;5134163;27;20059;-72
2022/07/05 08:44:06;;;;;;;10.68;4.60;;;32.60;93.60;;;;;;5124904;27;20410;-72
2022/07/05 08:46:33;;;;;;;9.10;4.65;;;32.60;92.20;;;;;;5129575;27;20027;-71
2022/07/05 08:49:01;;;;;;;6.60;4.72;;;32.50;92.40;;;;;;5133951;27;20019;-62
2022/07/05 08:51:28;;;;;;;9.00;5.10;;;32.60;94.60;;;;;;5134556;27;20030;-71
2022/07/05 08:53:58;;;;;;;7.70;4.82;;;32.80;99.60;;;;;;5134026;27;20042;-71
2022/07/05 08:56:24;;;;;;;9.10;4.85;;;32.70;96.60;;;;;;5133945;27;20477;-71
2022/07/05 08:58:50;;;;;;;10.68;4.55;;;33.00;96.40;;;;;;5122797;27;20062;-68
2022/07/05 09:01:16;;;;;;;7.20;4.35;;;32.80;96.80;;;;;;5130123;27;20043;-71
2022/07/05 09:03:48;;;;;;;8.20;4.72;;;32.80;97.70;;;;;;5132633;27;20051;-62
2022/07/05 09:06:20;;;;;;;12.70;4.80;;;33.10;99.90;;;;;;5119244;27;20028;-68
2022/07/05 09:08:47;;;;;;;10.40;4.93;;;33.20;94.80;;;;;;5115597;27;20031;-71
2022/07/05 09:11:16;;;;;;;8.68;4.72;;;33.00;94.00;;;;;;5116912;27;20023;-71
2022/07/05 09:13:47;;;;;;;11.60;5.15;;;32.80;94.60;;;;;;5114821;27;20127;-71
2022/07/05 09:16:13;;;;;;;7.43;4.47;;;32.80;92.90;;;;;;5112883;28;20062;-70
2022/07/05 09:18:39;;;;;;;6.78;4.53;;;32.80;93.90;;;;;;5126486;27;20520;-63
2022/07/05 09:21:12;;;;;;;7.00;4.15;;;32.50;91.90;;;;;;5133483;27;20034;-71
2022/07/05 09:23:39;;;;;;;7.53;4.20;;;32.20;92.90;;;;;;5133327;27;20045;-70
2022/07/05 09:26:04;;;;;;;6.85;4.40;;;32.20;93.50;;;;;;5118412;27;20046;-70
2022/07/05 09:28:30;;;;;;;7.75;4.68;;;32.10;95.30;;;;;;5133310;27;20080;-70
2022/07/05 09:30:56;;;;;;;7.22;4.53;;;31.90;96.00;;;;;;5132411;27;20418;-71
2022/07/05 09:33:22;;;;;;;7.93;4.63;;;31.70;94.90;;;;;;5133552;27;20039;-70
2022/07/05 09:35:59;;;;;;;7.60;4.18;;;31.80;93.90;;;;;;5133276;27;20151;-71
2022/07/05 09:38:26;;;;;;;11.48;4.60;;;31.90;97.20;;;;;;5133522;27;20458;-71
2022/07/05 09:40:54;;;;;;;6.13;4.35;;;32.00;94.10;;;;;;5115192;27;20078;-71
2022/07/05 09:43:21;;;;;;;13.57;4.43;;;32.10;93.30;;;;;;5123294;27;20039;-71
2022/07/05 09:45:56;;;;;;;8.60;4.25;;;32.30;94.20;;;;;;5121633;27;20043;-70
2022/07/05 09:48:22;;;;;;;6.03;3.60;;;32.10;92.60;;;;;;5128042;27;20057;-71
2022/07/05 09:50:50;;;;;;;8.15;3.97;;;32.10;93.60;;;;;;5122421;27;20076;-70
2022/07/05 09:53:20;;;;;;;7.20;4.05;;;32.30;94.00;;;;;;5132454;27;20050;-70
2022/07/05 09:56:01;;;;;;;6.78;4.35;;;32.30;92.80;;;;;;5122234;28;20036;-68
2022/07/05 09:58:27;;;;;;;7.43;4.20;;;32.00;93.20;;;;;;5115529;28;20050;-69
2022/07/05 10:00:53;;;;;;;11.27;4.97;;;32.10;92.60;;;;;;5132134;27;20084;-70
2022/07/05 10:03:19;;;;;;;7.18;4.43;;;32.20;93.70;;;;;;5132918;27;20023;-71
2022/07/05 10:05:45;;;;;;;10.13;4.50;;;32.20;95.00;;;;;;5132322;28;20044;-70
2022/07/05 10:08:13;;;;;;;10.00;4.30;;;32.20;95.40;;;;;;5133122;28;20015;-71
2022/07/05 10:10:40;;;;;;;9.18;4.43;;;32.30;93.30;;;;;;5132575;28;20027;-71
2022/07/05 10:13:06;;;;;;;6.00;3.88;;;31.90;94.50;;;;;;5132916;27;20035;-71
2022/07/05 10:15:34;;;;;;;9.18;3.78;;;31.90;94.50;;;;;;5132788;27;20019;-70
2022/07/05 10:18:07;;;;;;;8.20;3.17;;;31.70;97.00;;;;;;5136582;27;20031;-68
2022/07/05 10:20:41;;;;;;;9.85;3.63;;;31.90;94.10;;;;;;5137035;27;20546;-70
2022/07/05 10:23:18;;;;;;;7.97;3.65;;;31.90;94.90;;;;;;5136953;27;20027;-70
2022/07/05 10:25:49;;;;;;;11.50;4.20;;;31.90;95.70;;;;;;5136952;27;20058;-67
2022/07/05 10:28:17;;;;;;;5.80;3.72;;;31.90;94.50;;;;;;5120357;27;20073;-71
2022/07/05 10:30:49;;;;;;;6.40;3.95;;;31.70;93.90;;;;;;5133193;27;20040;-70
2022/07/05 10:33:20;;;;;;;6.55;3.65;;;31.60;95.30;;;;;;5136785;27;20130;-71
2022/07/05 10:35:47;;;;;;;6.68;3.92;;;31.50;97.10;;;;;;5136344;27;20114;-71
2022/07/05 10:38:14;;;;;;;15.35;4.35;;;31.30;94.20;;;;;;5136702;27;20079;-71
2022/07/05 10:40:49;;;;;;;4.85;3.58;;;31.60;96.00;;;;;;5123562;27;20124;-70
2022/07/05 10:43:16;;;;;;;6.50;4.93;;;31.60;95.20;;;;;;5122760;27;20489;-72
2022/07/05 10:45:49;;;;;;;6.47;3.78;;;31.60;95.70;;;;;;5136537;27;20069;-72
2022/07/05 10:48:19;;;;;;;6.97;3.92;;;31.80;97.40;;;;;;5120619;27;20043;-72
2022/07/05 10:50:50;;;;;;;7.03;4.40;;;31.90;96.20;;;;;;5136451;27;20099;-72
2022/07/05 10:53:18;;;;;;;7.37;4.10;;;31.60;98.10;;;;;;5132221;27;20043;-72
2022/07/05 10:55:55;;;;;;;7.60;3.38;;;31.60;96.10;;;;;;5126368;27;20295;-72
2022/07/05 10:58:25;;;;;;;5.70;3.70;;;31.60;96.60;;;;;;5136353;27;20023;-72
2022/07/05 11:01:12;;;;;;;8.07;4.45;;;31.90;95.90;;;;;;5136524;27;20054;-71
2022/07/05 11:03:38;;;;;;;9.65;4.60;;;31.90;96.10;;;;;;5136090;27;20022;-72
2022/07/05 11:06:06;;;;;;;8.50;4.10;;;31.60;99.10;;;;;;5136334;27;20109;-72
2022/07/05 11:09:00;;;;;;;7.50;4.65;;;31.80;95.70;;;;;;5135950;27;20515;-72
2022/07/05 11:11:33;;;;;;;8.05;4.30;;;32.00;97.20;;;;;;5135646;27;20126;-72
2022/07/05 11:14:04;;;;;;;5.78;4.45;;;31.90;94.40;;;;;;5135944;27;20035;-71
2022/07/05 11:16:34;;;;;;;15.85;4.32;;;31.80;94.70;;;;;;5136023;27;20107;-72
2022/07/05 11:19:07;;;;;;;6.43;4.57;;;32.20;95.20;;;;;;5134598;27;20026;-70
2022/07/05 11:21:34;;;;;;;7.32;4.88;;;32.00;92.90;;;;;;5119941;27;20124;-69
2022/07/05 11:24:24;;;;;;;6.30;4.38;;;32.00;94.90;;;;;;5135801;27;20012;-71
2022/07/05 11:26:54;;;;;;;7.32;4.18;;;32.10;96.10;;;;;;5135910;27;20050;-71
2022/07/05 11:29:42;;;;;;;11.32;4.13;;;32.10;94.40;;;;;;5134469;27;20031;-70
2022/07/05 11:32:11;;;;;;;8.07;4.55;;;32.10;94.50;;;;;;5122154;27;20030;-72
2022/07/05 11:34:46;;;;;;;8.27;4.90;;;32.20;95.00;;;;;;5133799;27;20110;-68
2022/07/05 11:37:23;;;;;;;7.88;4.90;;;32.20;95.60;;;;;;5135047;27;20462;-71
2022/07/05 11:40:07;;;;;;;10.70;4.55;;;32.20;96.70;;;;;;5134983;27;20039;-71
2022/07/05 11:42:41;;;;;;;15.90;4.93;;;32.10;95.80;;;;;;5135493;27;20042;-70
2022/07/05 11:45:11;;;;;;;10.32;4.63;;;32.10;93.10;;;;;;5120774;27;20024;-71
2022/07/05 11:47:38;;;;;;;9.60;5.35;;;32.20;94.70;;;;;;5125174;27;20109;-71
2022/07/05 11:50:04;;;;;;;9.55;4.65;;;32.40;94.90;;;;;;5129074;27;20064;-72
2022/07/05 11:52:32;;;;;;;6.90;4.57;;;32.40;93.30;;;;;;5123271;27;20046;-72
2022/07/05 11:54:59;;;;;;;10.27;5.03;;;32.30;93.50;;;;;;5135347;27;20027;-70
2022/07/05 11:57:25;;;;;;;8.55;4.72;;;32.30;94.00;;;;;;5135238;27;20019;-71
2022/07/05 11:59:52;;;;;;;7.53;4.93;;;32.20;93.50;;;;;;5134872;27;20023;-71
2022/07/05 12:02:18;;;;;;;6.25;4.70;;;32.30;94.20;;;;;;5134747;27;20022;-71
2022/07/05 12:04:55;;;;;;;7.32;4.80;;;32.50;95.80;;;;;;5135416;27;20034;-71
2022/07/05 12:14:00;;;;;;;9.57;4.97;;;32.80;94.10;;;;;;5090716;28;20075;-72
2022/07/05 12:16:26;;;;;;;12.65;5.50;;;33.00;93.20;;;;;;5091406;28;20074;-71
2022/07/05 12:18:56;;;;;;;7.68;5.15;;;32.80;92.00;;;;;;5074236;28;20478;-72
2022/07/05 12:21:25;;;;;;;9.68;5.05;;;32.70;92.60;;;;;;5073429;28;20039;-72
2022/07/05 12:23:51;;;;;;;7.32;4.78;;;32.70;93.20;;;;;;5087728;28;20069;-71
2022/07/05 12:26:18;;;;;;;22.55;4.88;;;32.80;93.00;;;;;;5093067;28;20516;-72
2022/07/05 12:28:45;;;;;;;8.88;5.22;;;32.80;93.70;;;;;;5078976;28;20032;-72
2022/07/05 12:31:22;;;;;;;8.88;5.03;;;32.90;92.60;;;;;;5093291;28;20537;-72
2022/07/05 12:33:49;;;;;;;14.95;4.72;;;32.90;93.30;;;;;;5093180;28;20035;-71
2022/07/05 12:36:27;;;;;;;10.20;5.03;;;32.80;92.40;;;;;;5084736;28;20021;-72
2022/07/05 12:38:59;;;;;;;7.53;5.22;;;32.80;93.70;;;;;;5071871;28;20028;-72
2022/07/05 12:41:25;;;;;;;10.13;5.43;;;33.00;93.10;;;;;;5079489;28;20489;-72
2022/07/05 12:43:53;;;;;;;9.82;5.53;;;33.00;92.20;;;;;;5083829;28;20039;-75
2022/07/05 12:46:19;;;;;;;10.27;5.18;;;33.00;94.50;;;;;;5072125;28;20069;-72
2022/07/05 12:48:53;;;;;;;15.02;5.60;;;33.20;93.30;;;;;;5089647;28;20367;-72
2022/07/05 12:51:35;;;;;;;10.85;5.70;;;33.20;92.80;;;;;;5089700;28;20107;-72
2022/07/05 12:59:32;;;;;;;9.43;5.18;;;33.20;91.90;;;;;;5093102;28;20027;-72